sensor_id;sensor_type;location;lat;lon;timestamp;P1;durP1;ratioP1;P2;durP2;ratioP2
16837;SDS011;19510;54.486;9.046;2023-02-22T00:00:58;5.85;;;3.78;;
16837;SDS011;19510;54.486;9.046;2023-02-22T00:03:27;5.40;;;3.55;;
16837;SDS011;19510;54.486;9.046;2023-02-22T00:06:00;6.40;;;3.90;;
16837;SDS011;19510;54.486;9.046;2023-02-22T00:08:29;6.85;;;4.00;;
16837;SDS011;19510;54.486;9.046;2023-02-22T00:10:57;6.03;;;3.53;;
16837;SDS011;19510;54.486;9.046;2023-02-22T00:13:23;6.20;;;3.70;;
16837;SDS011;19510;54.486;9.046;2023-02-22T00:15:53;6.28;;;3.58;;
16837;SDS011;19510;54.486;9.046;2023-02-22T00:18:19;6.65;;;3.35;;
16837;SDS011;19510;54.486;9.046;2023-02-22T00:20:45;7.07;;;3.53;;
16837;SDS011;19510;54.486;9.046;2023-02-22T00:23:20;5.78;;;3.17;;
16837;SDS011;19510;54.486;9.046;2023-02-22T00:25:47;8.55;;;3.60;;
16837;SDS011;19510;54.486;9.046;2023-02-22T00:28:15;5.50;;;3.30;;
16837;SDS011;19510;54.486;9.046;2023-02-22T00:30:43;6.03;;;3.30;;
16837;SDS011;19510;54.486;9.046;2023-02-22T00:33:13;5.65;;;3.38;;
16837;SDS011;19510;54.486;9.046;2023-02-22T00:35:39;5.97;;;3.50;;
16837;SDS011;19510;54.486;9.046;2023-02-22T00:38:09;5.43;;;2.78;;
16837;SDS011;19510;54.486;9.046;2023-02-22T00:40:37;6.70;;;3.67;;
16837;SDS011;19510;54.486;9.046;2023-02-22T00:43:05;5.72;;;3.30;;
16837;SDS011;19510;54.486;9.046;2023-02-22T00:45:31;6.70;;;3.42;;
16837;SDS011;19510;54.486;9.046;2023-02-22T00:47:58;6.72;;;3.67;;
16837;SDS011;19510;54.486;9.046;2023-02-22T00:50:25;6.65;;;3.70;;
16837;SDS011;19510;54.486;9.046;2023-02-22T00:52:55;6.72;;;3.70;;
16837;SDS011;19510;54.486;9.046;2023-02-22T00:55:23;6.22;;;3.70;;
16837;SDS011;19510;54.486;9.046;2023-02-22T00:57:51;6.25;;;3.90;;
16837;SDS011;19510;54.486;9.046;2023-02-22T01:00:19;6.95;;;3.90;;
16837;SDS011;19510;54.486;9.046;2023-02-22T01:02:47;6.70;;;3.85;;
16837;SDS011;19510;54.486;9.046;2023-02-22T01:05:16;9.70;;;4.15;;
16837;SDS011;19510;54.486;9.046;2023-02-22T01:07:45;6.60;;;3.72;;
16837;SDS011;19510;54.486;9.046;2023-02-22T01:10:11;7.43;;;3.83;;
16837;SDS011;19510;54.486;9.046;2023-02-22T01:12:38;10.38;;;4.43;;
16837;SDS011;19510;54.486;9.046;2023-02-22T01:15:07;9.30;;;5.07;;
16837;SDS011;19510;54.486;9.046;2023-02-22T01:17:36;9.30;;;4.95;;
16837;SDS011;19510;54.486;9.046;2023-02-22T01:20:06;9.18;;;4.78;;
16837;SDS011;19510;54.486;9.046;2023-02-22T01:22:37;12.93;;;5.68;;
16837;SDS011;19510;54.486;9.046;2023-02-22T01:25:04;8.23;;;4.63;;
16837;SDS011;19510;54.486;9.046;2023-02-22T01:27:31;10.30;;;4.85;;
16837;SDS011;19510;54.486;9.046;2023-02-22T01:29:57;11.75;;;5.85;;
16837;SDS011;19510;54.486;9.046;2023-02-22T01:32:23;11.65;;;5.97;;
16837;SDS011;19510;54.486;9.046;2023-02-22T01:34:51;11.77;;;5.93;;
16837;SDS011;19510;54.486;9.046;2023-02-22T01:37:17;14.50;;;5.72;;
16837;SDS011;19510;54.486;9.046;2023-02-22T01:39:43;14.57;;;6.25;;
16837;SDS011;19510;54.486;9.046;2023-02-22T01:42:09;17.50;;;6.68;;
16837;SDS011;19510;54.486;9.046;2023-02-22T01:44:35;14.73;;;6.65;;
16837;SDS011;19510;54.486;9.046;2023-02-22T01:47:04;16.80;;;8.05;;
16837;SDS011;19510;54.486;9.046;2023-02-22T01:49:35;15.48;;;6.95;;
16837;SDS011;19510;54.486;9.046;2023-02-22T01:52:16;19.10;;;7.22;;
16837;SDS011;19510;54.486;9.046;2023-02-22T01:54:55;21.13;;;8.80;;
16837;SDS011;19510;54.486;9.046;2023-02-22T01:57:24;17.08;;;7.38;;
16837;SDS011;19510;54.486;9.046;2023-02-22T01:59:57;20.77;;;7.88;;
16837;SDS011;19510;54.486;9.046;2023-02-22T02:02:33;20.52;;;8.10;;
16837;SDS011;19510;54.486;9.046;2023-02-22T02:05:00;17.42;;;7.38;;
16837;SDS011;19510;54.486;9.046;2023-02-22T02:07:26;16.98;;;7.30;;
16837;SDS011;19510;54.486;9.046;2023-02-22T02:09:57;15.50;;;7.38;;
16837;SDS011;19510;54.486;9.046;2023-02-22T02:12:26;16.08;;;6.28;;
16837;SDS011;19510;54.486;9.046;2023-02-22T02:15:14;15.90;;;7.15;;
16837;SDS011;19510;54.486;9.046;2023-02-22T02:17:41;16.50;;;7.05;;
16837;SDS011;19510;54.486;9.046;2023-02-22T02:20:13;18.83;;;7.15;;
16837;SDS011;19510;54.486;9.046;2023-02-22T02:23:34;15.55;;;7.07;;
16837;SDS011;19510;54.486;9.046;2023-02-22T02:35:58;42.75;;;8.55;;
16837;SDS011;19510;54.486;9.046;2023-02-22T02:38:33;31.58;;;8.40;;
16837;SDS011;19510;54.486;9.046;2023-02-22T02:41:26;17.05;;;7.45;;
16837;SDS011;19510;54.486;9.046;2023-02-22T02:44:10;26.40;;;8.10;;
16837;SDS011;19510;54.486;9.046;2023-02-22T02:49:24;19.73;;;7.65;;
16837;SDS011;19510;54.486;9.046;2023-02-22T02:51:58;23.88;;;8.02;;
16837;SDS011;19510;54.486;9.046;2023-02-22T02:54:26;35.03;;;7.97;;
16837;SDS011;19510;54.486;9.046;2023-02-22T02:56:53;42.67;;;8.77;;
16837;SDS011;19510;54.486;9.046;2023-02-22T02:59:31;28.73;;;9.07;;
16837;SDS011;19510;54.486;9.046;2023-02-22T03:10:47;26.50;;;8.57;;
16837;SDS011;19510;54.486;9.046;2023-02-22T03:13:51;27.65;;;9.18;;
16837;SDS011;19510;54.486;9.046;2023-02-22T03:16:34;20.90;;;8.68;;
16837;SDS011;19510;54.486;9.046;2023-02-22T03:19:19;33.42;;;9.05;;
16837;SDS011;19510;54.486;9.046;2023-02-22T03:25:09;30.92;;;10.35;;
16837;SDS011;19510;54.486;9.046;2023-02-22T03:27:51;25.35;;;9.48;;
16837;SDS011;19510;54.486;9.046;2023-02-22T03:33:06;27.92;;;10.43;;
16837;SDS011;19510;54.486;9.046;2023-02-22T03:35:39;25.58;;;8.93;;
16837;SDS011;19510;54.486;9.046;2023-02-22T03:38:10;35.55;;;9.23;;
16837;SDS011;19510;54.486;9.046;2023-02-22T03:40:40;27.50;;;8.70;;
16837;SDS011;19510;54.486;9.046;2023-02-22T03:43:12;26.75;;;9.90;;
16837;SDS011;19510;54.486;9.046;2023-02-22T03:45:40;28.00;;;8.63;;
16837;SDS011;19510;54.486;9.046;2023-02-22T03:48:18;28.55;;;9.45;;
16837;SDS011;19510;54.486;9.046;2023-02-22T03:51:12;40.15;;;10.13;;
16837;SDS011;19510;54.486;9.046;2023-02-22T03:53:42;32.45;;;9.65;;
16837;SDS011;19510;54.486;9.046;2023-02-22T03:56:09;29.67;;;9.68;;
16837;SDS011;19510;54.486;9.046;2023-02-22T03:58:41;30.67;;;9.48;;
16837;SDS011;19510;54.486;9.046;2023-02-22T04:01:09;33.38;;;10.25;;
16837;SDS011;19510;54.486;9.046;2023-02-22T04:03:35;32.65;;;10.65;;
16837;SDS011;19510;54.486;9.046;2023-02-22T04:06:03;46.90;;;10.68;;
16837;SDS011;19510;54.486;9.046;2023-02-22T04:08:29;47.55;;;8.98;;
16837;SDS011;19510;54.486;9.046;2023-02-22T04:10:55;27.15;;;10.05;;
16837;SDS011;19510;54.486;9.046;2023-02-22T04:13:21;37.55;;;9.93;;
16837;SDS011;19510;54.486;9.046;2023-02-22T04:15:49;28.00;;;9.63;;
16837;SDS011;19510;54.486;9.046;2023-02-22T04:18:14;26.38;;;10.02;;
16837;SDS011;19510;54.486;9.046;2023-02-22T04:20:40;39.15;;;9.75;;
16837;SDS011;19510;54.486;9.046;2023-02-22T04:23:06;27.73;;;9.43;;
16837;SDS011;19510;54.486;9.046;2023-02-22T04:25:33;29.02;;;10.02;;
16837;SDS011;19510;54.486;9.046;2023-02-22T04:27:59;32.17;;;10.55;;
16837;SDS011;19510;54.486;9.046;2023-02-22T04:30:25;39.30;;;11.10;;
16837;SDS011;19510;54.486;9.046;2023-02-22T04:32:52;42.15;;;10.35;;
16837;SDS011;19510;54.486;9.046;2023-02-22T04:35:18;30.98;;;10.43;;
16837;SDS011;19510;54.486;9.046;2023-02-22T04:37:44;23.88;;;9.55;;
16837;SDS011;19510;54.486;9.046;2023-02-22T04:40:10;29.02;;;10.50;;
16837;SDS011;19510;54.486;9.046;2023-02-22T04:42:36;29.88;;;9.98;;
16837;SDS011;19510;54.486;9.046;2023-02-22T04:45:04;24.38;;;9.43;;
16837;SDS011;19510;54.486;9.046;2023-02-22T04:47:32;30.35;;;10.50;;
16837;SDS011;19510;54.486;9.046;2023-02-22T04:49:58;22.38;;;9.27;;
16837;SDS011;19510;54.486;9.046;2023-02-22T04:52:24;23.90;;;9.15;;
16837;SDS011;19510;54.486;9.046;2023-02-22T04:54:53;22.92;;;8.40;;
16837;SDS011;19510;54.486;9.046;2023-02-22T04:57:19;20.90;;;8.15;;
16837;SDS011;19510;54.486;9.046;2023-02-22T04:59:44;22.33;;;8.40;;
16837;SDS011;19510;54.486;9.046;2023-02-22T05:02:10;14.65;;;6.32;;
16837;SDS011;19510;54.486;9.046;2023-02-22T05:04:36;20.73;;;7.65;;
16837;SDS011;19510;54.486;9.046;2023-02-22T05:07:02;18.55;;;7.22;;
16837;SDS011;19510;54.486;9.046;2023-02-22T05:09:28;18.50;;;8.50;;
16837;SDS011;19510;54.486;9.046;2023-02-22T05:11:54;19.05;;;8.38;;
16837;SDS011;19510;54.486;9.046;2023-02-22T05:14:20;19.13;;;7.63;;
16837;SDS011;19510;54.486;9.046;2023-02-22T05:16:47;20.80;;;8.05;;
16837;SDS011;19510;54.486;9.046;2023-02-22T05:19:15;19.20;;;7.78;;
16837;SDS011;19510;54.486;9.046;2023-02-22T05:21:41;20.67;;;7.18;;
16837;SDS011;19510;54.486;9.046;2023-02-22T05:24:11;16.38;;;7.07;;
16837;SDS011;19510;54.486;9.046;2023-02-22T05:26:37;18.75;;;7.55;;
16837;SDS011;19510;54.486;9.046;2023-02-22T05:29:04;18.58;;;7.80;;
16837;SDS011;19510;54.486;9.046;2023-02-22T05:31:30;18.15;;;8.07;;
16837;SDS011;19510;54.486;9.046;2023-02-22T05:33:56;18.08;;;7.30;;
16837;SDS011;19510;54.486;9.046;2023-02-22T05:36:22;17.80;;;7.55;;
16837;SDS011;19510;54.486;9.046;2023-02-22T05:38:48;18.02;;;7.53;;
16837;SDS011;19510;54.486;9.046;2023-02-22T05:41:14;22.48;;;7.95;;
16837;SDS011;19510;54.486;9.046;2023-02-22T05:43:42;20.42;;;8.15;;
16837;SDS011;19510;54.486;9.046;2023-02-22T05:46:12;17.92;;;8.02;;
16837;SDS011;19510;54.486;9.046;2023-02-22T05:48:38;21.60;;;8.68;;
16837;SDS011;19510;54.486;9.046;2023-02-22T05:51:04;21.80;;;9.15;;
16837;SDS011;19510;54.486;9.046;2023-02-22T05:53:30;23.20;;;9.20;;
16837;SDS011;19510;54.486;9.046;2023-02-22T05:55:56;23.45;;;9.27;;
16837;SDS011;19510;54.486;9.046;2023-02-22T05:58:24;22.40;;;9.52;;
16837;SDS011;19510;54.486;9.046;2023-02-22T06:00:50;23.13;;;8.98;;
16837;SDS011;19510;54.486;9.046;2023-02-22T06:03:15;27.30;;;10.38;;
16837;SDS011;19510;54.486;9.046;2023-02-22T06:05:41;23.13;;;9.43;;
16837;SDS011;19510;54.486;9.046;2023-02-22T06:08:07;23.80;;;9.85;;
16837;SDS011;19510;54.486;9.046;2023-02-22T06:10:33;20.40;;;9.32;;
16837;SDS011;19510;54.486;9.046;2023-02-22T06:12:59;25.45;;;9.13;;
16837;SDS011;19510;54.486;9.046;2023-02-22T06:15:28;23.27;;;9.18;;
16837;SDS011;19510;54.486;9.046;2023-02-22T06:17:56;23.55;;;9.18;;
16837;SDS011;19510;54.486;9.046;2023-02-22T06:20:24;30.20;;;10.18;;
16837;SDS011;19510;54.486;9.046;2023-02-22T06:22:51;26.13;;;9.88;;
16837;SDS011;19510;54.486;9.046;2023-02-22T06:25:23;28.20;;;9.05;;
16837;SDS011;19510;54.486;9.046;2023-02-22T06:27:51;22.65;;;9.10;;
16837;SDS011;19510;54.486;9.046;2023-02-22T06:30:17;25.65;;;9.18;;
16837;SDS011;19510;54.486;9.046;2023-02-22T06:32:44;24.52;;;10.07;;
16837;SDS011;19510;54.486;9.046;2023-02-22T06:35:10;23.77;;;9.32;;
16837;SDS011;19510;54.486;9.046;2023-02-22T06:37:36;27.60;;;10.02;;
16837;SDS011;19510;54.486;9.046;2023-02-22T06:40:03;22.98;;;9.30;;
16837;SDS011;19510;54.486;9.046;2023-02-22T06:42:29;25.25;;;9.88;;
16837;SDS011;19510;54.486;9.046;2023-02-22T06:44:57;22.52;;;8.32;;
16837;SDS011;19510;54.486;9.046;2023-02-22T06:47:23;21.92;;;8.02;;
16837;SDS011;19510;54.486;9.046;2023-02-22T06:49:52;21.98;;;8.30;;
16837;SDS011;19510;54.486;9.046;2023-02-22T06:52:19;24.17;;;8.60;;
16837;SDS011;19510;54.486;9.046;2023-02-22T06:54:45;20.88;;;7.82;;
16837;SDS011;19510;54.486;9.046;2023-02-22T06:57:11;21.20;;;8.10;;
16837;SDS011;19510;54.486;9.046;2023-02-22T06:59:37;21.58;;;8.75;;
16837;SDS011;19510;54.486;9.046;2023-02-22T07:02:03;23.17;;;8.50;;
16837;SDS011;19510;54.486;9.046;2023-02-22T07:04:29;20.10;;;7.80;;
16837;SDS011;19510;54.486;9.046;2023-02-22T07:06:54;18.83;;;7.75;;
16837;SDS011;19510;54.486;9.046;2023-02-22T07:09:20;20.23;;;7.53;;
16837;SDS011;19510;54.486;9.046;2023-02-22T07:11:46;16.65;;;6.78;;
16837;SDS011;19510;54.486;9.046;2023-02-22T07:14:17;18.90;;;7.10;;
16837;SDS011;19510;54.486;9.046;2023-02-22T07:16:43;16.10;;;7.20;;
16837;SDS011;19510;54.486;9.046;2023-02-22T07:19:08;18.75;;;6.97;;
16837;SDS011;19510;54.486;9.046;2023-02-22T07:21:36;15.98;;;7.00;;
16837;SDS011;19510;54.486;9.046;2023-02-22T07:24:02;16.02;;;6.78;;
16837;SDS011;19510;54.486;9.046;2023-02-22T07:26:28;16.73;;;6.53;;
16837;SDS011;19510;54.486;9.046;2023-02-22T07:28:55;17.52;;;7.05;;
16837;SDS011;19510;54.486;9.046;2023-02-22T07:31:21;18.67;;;7.43;;
16837;SDS011;19510;54.486;9.046;2023-02-22T07:33:49;15.70;;;7.22;;
16837;SDS011;19510;54.486;9.046;2023-02-22T07:36:15;14.90;;;6.78;;
16837;SDS011;19510;54.486;9.046;2023-02-22T07:38:42;18.95;;;7.50;;
16837;SDS011;19510;54.486;9.046;2023-02-22T07:41:11;21.58;;;9.52;;
16837;SDS011;19510;54.486;9.046;2023-02-22T07:43:39;16.20;;;7.40;;
16837;SDS011;19510;54.486;9.046;2023-02-22T07:46:04;24.08;;;8.02;;
16837;SDS011;19510;54.486;9.046;2023-02-22T07:48:30;18.08;;;7.25;;
16837;SDS011;19510;54.486;9.046;2023-02-22T07:50:57;18.90;;;7.53;;
16837;SDS011;19510;54.486;9.046;2023-02-22T07:53:24;18.85;;;7.82;;
16837;SDS011;19510;54.486;9.046;2023-02-22T07:55:55;23.58;;;8.18;;
16837;SDS011;19510;54.486;9.046;2023-02-22T07:58:25;19.73;;;7.15;;
16837;SDS011;19510;54.486;9.046;2023-02-22T08:00:57;19.15;;;7.95;;
16837;SDS011;19510;54.486;9.046;2023-02-22T08:03:26;20.92;;;8.32;;
16837;SDS011;19510;54.486;9.046;2023-02-22T08:05:55;16.60;;;7.28;;
16837;SDS011;19510;54.486;9.046;2023-02-22T08:08:22;16.88;;;7.07;;
16837;SDS011;19510;54.486;9.046;2023-02-22T08:10:48;17.95;;;7.63;;
16837;SDS011;19510;54.486;9.046;2023-02-22T08:13:15;16.92;;;7.30;;
16837;SDS011;19510;54.486;9.046;2023-02-22T08:15:41;21.67;;;8.13;;
16837;SDS011;19510;54.486;9.046;2023-02-22T08:18:14;19.60;;;7.90;;
16837;SDS011;19510;54.486;9.046;2023-02-22T08:20:42;16.42;;;8.00;;
16837;SDS011;19510;54.486;9.046;2023-02-22T08:23:10;21.88;;;8.98;;
16837;SDS011;19510;54.486;9.046;2023-02-22T08:25:37;18.38;;;8.18;;
16837;SDS011;19510;54.486;9.046;2023-02-22T08:28:10;21.90;;;8.38;;
16837;SDS011;19510;54.486;9.046;2023-02-22T08:30:39;21.13;;;8.73;;
16837;SDS011;19510;54.486;9.046;2023-02-22T08:36:31;28.38;;;10.70;;
16837;SDS011;19510;54.486;9.046;2023-02-22T08:38:58;30.17;;;10.40;;
16837;SDS011;19510;54.486;9.046;2023-02-22T08:41:24;29.83;;;11.18;;
16837;SDS011;19510;54.486;9.046;2023-02-22T08:43:50;33.03;;;12.02;;
16837;SDS011;19510;54.486;9.046;2023-02-22T08:46:16;36.42;;;11.70;;
16837;SDS011;19510;54.486;9.046;2023-02-22T08:48:48;36.50;;;11.80;;
16837;SDS011;19510;54.486;9.046;2023-02-22T08:51:16;30.15;;;11.55;;
16837;SDS011;19510;54.486;9.046;2023-02-22T08:53:44;31.55;;;12.02;;
16837;SDS011;19510;54.486;9.046;2023-02-22T08:56:12;33.50;;;11.57;;
16837;SDS011;19510;54.486;9.046;2023-02-22T08:58:38;35.53;;;12.50;;
16837;SDS011;19510;54.486;9.046;2023-02-22T09:01:04;28.40;;;11.88;;
16837;SDS011;19510;54.486;9.046;2023-02-22T09:03:30;34.30;;;12.98;;
16837;SDS011;19510;54.486;9.046;2023-02-22T09:05:58;36.08;;;12.02;;
16837;SDS011;19510;54.486;9.046;2023-02-22T09:08:23;33.03;;;12.23;;
16837;SDS011;19510;54.486;9.046;2023-02-22T09:10:49;39.85;;;12.63;;
16837;SDS011;19510;54.486;9.046;2023-02-22T09:13:17;37.70;;;11.63;;
16837;SDS011;19510;54.486;9.046;2023-02-22T09:15:43;39.28;;;11.55;;
16837;SDS011;19510;54.486;9.046;2023-02-22T09:18:12;39.58;;;13.15;;
16837;SDS011;19510;54.486;9.046;2023-02-22T09:20:42;37.40;;;12.57;;
16837;SDS011;19510;54.486;9.046;2023-02-22T09:23:08;35.17;;;12.93;;
16837;SDS011;19510;54.486;9.046;2023-02-22T09:25:34;34.65;;;13.60;;
16837;SDS011;19510;54.486;9.046;2023-02-22T09:28:00;38.58;;;12.73;;
16837;SDS011;19510;54.486;9.046;2023-02-22T09:30:30;39.05;;;12.98;;
16837;SDS011;19510;54.486;9.046;2023-02-22T09:33:01;34.45;;;12.32;;
16837;SDS011;19510;54.486;9.046;2023-02-22T09:35:36;35.25;;;12.75;;
16837;SDS011;19510;54.486;9.046;2023-02-22T09:38:06;37.67;;;13.98;;
16837;SDS011;19510;54.486;9.046;2023-02-22T09:40:36;34.80;;;13.32;;
16837;SDS011;19510;54.486;9.046;2023-02-22T09:49:19;32.90;;;12.45;;
16837;SDS011;19510;54.486;9.046;2023-02-22T09:51:57;33.30;;;12.45;;
16837;SDS011;19510;54.486;9.046;2023-02-22T09:57:11;23.58;;;11.85;;
16837;SDS011;19510;54.486;9.046;2023-02-22T09:59:42;27.80;;;12.15;;
16837;SDS011;19510;54.486;9.046;2023-02-22T10:02:21;30.00;;;12.13;;
16837;SDS011;19510;54.486;9.046;2023-02-22T10:05:13;28.30;;;11.55;;
16837;SDS011;19510;54.486;9.046;2023-02-22T10:07:50;27.65;;;11.77;;
16837;SDS011;19510;54.486;9.046;2023-02-22T10:10:21;24.60;;;11.63;;
16837;SDS011;19510;54.486;9.046;2023-02-22T10:18:48;26.73;;;11.70;;
16837;SDS011;19510;54.486;9.046;2023-02-22T10:21:46;24.85;;;11.55;;
16837;SDS011;19510;54.486;9.046;2023-02-22T10:24:33;25.63;;;11.43;;
16837;SDS011;19510;54.486;9.046;2023-02-22T10:27:15;26.95;;;11.75;;
16837;SDS011;19510;54.486;9.046;2023-02-22T10:29:48;25.95;;;10.80;;
16837;SDS011;19510;54.486;9.046;2023-02-22T10:32:34;29.83;;;12.52;;
16837;SDS011;19510;54.486;9.046;2023-02-22T10:35:22;23.67;;;11.02;;
16837;SDS011;19510;54.486;9.046;2023-02-22T10:37:55;27.92;;;11.48;;
16837;SDS011;19510;54.486;9.046;2023-02-22T10:40:24;24.50;;;11.88;;
16837;SDS011;19510;54.486;9.046;2023-02-22T10:43:03;23.38;;;11.60;;
16837;SDS011;19510;54.486;9.046;2023-02-22T10:54:50;24.27;;;11.93;;
16837;SDS011;19510;54.486;9.046;2023-02-22T10:57:19;24.40;;;10.50;;
16837;SDS011;19510;54.486;9.046;2023-02-22T10:59:50;23.13;;;11.02;;
16837;SDS011;19510;54.486;9.046;2023-02-22T11:04:48;25.17;;;11.95;;
16837;SDS011;19510;54.486;9.046;2023-02-22T11:07:29;25.00;;;10.90;;
16837;SDS011;19510;54.486;9.046;2023-02-22T11:09:57;23.30;;;10.57;;
16837;SDS011;19510;54.486;9.046;2023-02-22T11:12:35;23.67;;;10.38;;
16837;SDS011;19510;54.486;9.046;2023-02-22T11:15:35;23.33;;;10.88;;
16837;SDS011;19510;54.486;9.046;2023-02-22T11:17:55;25.35;;;11.18;;
16837;SDS011;19510;54.486;9.046;2023-02-22T11:20:23;26.17;;;11.73;;
16837;SDS011;19510;54.486;9.046;2023-02-22T11:22:58;23.98;;;10.90;;
16837;SDS011;19510;54.486;9.046;2023-02-22T11:25:27;26.13;;;11.07;;
16837;SDS011;19510;54.486;9.046;2023-02-22T11:28:08;30.45;;;11.77;;
16837;SDS011;19510;54.486;9.046;2023-02-22T11:30:39;27.55;;;11.70;;
16837;SDS011;19510;54.486;9.046;2023-02-22T11:35:56;24.20;;;10.65;;
16837;SDS011;19510;54.486;9.046;2023-02-22T11:41:04;25.73;;;10.65;;
16837;SDS011;19510;54.486;9.046;2023-02-22T11:43:32;25.27;;;10.48;;
16837;SDS011;19510;54.486;9.046;2023-02-22T11:46:02;26.80;;;11.20;;
16837;SDS011;19510;54.486;9.046;2023-02-22T11:48:33;22.30;;;10.85;;
16837;SDS011;19510;54.486;9.046;2023-02-22T11:54:03;22.60;;;9.73;;
16837;SDS011;19510;54.486;9.046;2023-02-22T11:56:53;28.15;;;10.57;;
16837;SDS011;19510;54.486;9.046;2023-02-22T12:02:56;21.70;;;9.27;;
16837;SDS011;19510;54.486;9.046;2023-02-22T12:08:24;21.13;;;9.98;;
16837;SDS011;19510;54.486;9.046;2023-02-22T12:13:59;22.45;;;10.23;;
16837;SDS011;19510;54.486;9.046;2023-02-22T12:17:03;23.15;;;9.80;;
16837;SDS011;19510;54.486;9.046;2023-02-22T12:19:41;23.35;;;10.10;;
16837;SDS011;19510;54.486;9.046;2023-02-22T12:24:48;20.05;;;9.35;;
16837;SDS011;19510;54.486;9.046;2023-02-22T12:27:17;19.15;;;8.85;;
16837;SDS011;19510;54.486;9.046;2023-02-22T12:29:57;28.15;;;14.27;;
16837;SDS011;19510;54.486;9.046;2023-02-22T12:37:55;22.48;;;9.95;;
16837;SDS011;19510;54.486;9.046;2023-02-22T12:46:15;19.00;;;9.07;;
16837;SDS011;19510;54.486;9.046;2023-02-22T13:05:24;14.20;;;7.30;;
16837;SDS011;19510;54.486;9.046;2023-02-22T13:16:24;13.88;;;6.97;;
16837;SDS011;19510;54.486;9.046;2023-02-22T13:21:56;12.18;;;6.50;;
16837;SDS011;19510;54.486;9.046;2023-02-22T13:27:12;11.55;;;6.50;;
16837;SDS011;19510;54.486;9.046;2023-02-22T13:29:46;13.70;;;6.15;;
16837;SDS011;19510;54.486;9.046;2023-02-22T13:35:18;13.32;;;6.43;;
16837;SDS011;19510;54.486;9.046;2023-02-22T13:51:51;11.43;;;5.88;;
16837;SDS011;19510;54.486;9.046;2023-02-22T13:54:25;12.38;;;6.25;;
16837;SDS011;19510;54.486;9.046;2023-02-22T13:57:44;14.32;;;6.20;;
16837;SDS011;19510;54.486;9.046;2023-02-22T14:13:07;13.95;;;7.30;;
16837;SDS011;19510;54.486;9.046;2023-02-22T14:15:33;12.95;;;6.70;;
16837;SDS011;19510;54.486;9.046;2023-02-22T14:18:00;15.40;;;7.60;;
16837;SDS011;19510;54.486;9.046;2023-02-22T14:25:47;13.93;;;7.15;;
16837;SDS011;19510;54.486;9.046;2023-02-22T14:31:16;15.25;;;7.85;;
16837;SDS011;19510;54.486;9.046;2023-02-22T14:33:52;12.90;;;7.05;;
16837;SDS011;19510;54.486;9.046;2023-02-22T14:39:11;13.55;;;7.10;;
16837;SDS011;19510;54.486;9.046;2023-02-22T14:41:45;13.82;;;7.07;;
16837;SDS011;19510;54.486;9.046;2023-02-22T14:44:20;13.93;;;7.55;;
16837;SDS011;19510;54.486;9.046;2023-02-22T14:46:50;14.15;;;7.65;;
16837;SDS011;19510;54.486;9.046;2023-02-22T14:49:18;13.30;;;7.13;;
16837;SDS011;19510;54.486;9.046;2023-02-22T14:51:52;14.45;;;7.30;;
16837;SDS011;19510;54.486;9.046;2023-02-22T14:54:27;16.25;;;7.90;;
16837;SDS011;19510;54.486;9.046;2023-02-22T14:57:20;15.23;;;7.97;;
16837;SDS011;19510;54.486;9.046;2023-02-22T14:59:58;15.02;;;7.88;;
16837;SDS011;19510;54.486;9.046;2023-02-22T15:02:26;15.05;;;7.40;;
16837;SDS011;19510;54.486;9.046;2023-02-22T15:04:53;14.80;;;7.38;;
16837;SDS011;19510;54.486;9.046;2023-02-22T15:07:23;14.95;;;7.75;;
16837;SDS011;19510;54.486;9.046;2023-02-22T15:09:56;17.15;;;7.65;;
16837;SDS011;19510;54.486;9.046;2023-02-22T15:13:12;13.07;;;7.50;;
16837;SDS011;19510;54.486;9.046;2023-02-22T15:15:47;15.18;;;7.63;;
16837;SDS011;19510;54.486;9.046;2023-02-22T15:18:19;14.68;;;7.32;;
16837;SDS011;19510;54.486;9.046;2023-02-22T15:20:46;14.05;;;7.07;;
16837;SDS011;19510;54.486;9.046;2023-02-22T15:23:20;13.50;;;7.28;;
16837;SDS011;19510;54.486;9.046;2023-02-22T15:25:48;17.10;;;8.40;;
16837;SDS011;19510;54.486;9.046;2023-02-22T15:28:14;12.70;;;7.03;;
16837;SDS011;19510;54.486;9.046;2023-02-22T15:30:42;14.60;;;7.45;;
16837;SDS011;19510;54.486;9.046;2023-02-22T15:33:18;12.50;;;6.60;;
16837;SDS011;19510;54.486;9.046;2023-02-22T15:35:53;14.75;;;6.50;;
16837;SDS011;19510;54.486;9.046;2023-02-22T15:38:21;12.13;;;6.68;;
16837;SDS011;19510;54.486;9.046;2023-02-22T15:41:03;12.20;;;6.68;;
16837;SDS011;19510;54.486;9.046;2023-02-22T15:43:32;14.32;;;7.25;;
16837;SDS011;19510;54.486;9.046;2023-02-22T15:45:59;12.77;;;7.43;;
16837;SDS011;19510;54.486;9.046;2023-02-22T15:48:25;14.00;;;6.82;;
16837;SDS011;19510;54.486;9.046;2023-02-22T15:53:51;16.15;;;7.60;;
16837;SDS011;19510;54.486;9.046;2023-02-22T15:56:28;11.75;;;6.93;;
16837;SDS011;19510;54.486;9.046;2023-02-22T15:59:01;14.93;;;7.53;;
16837;SDS011;19510;54.486;9.046;2023-02-22T16:01:42;14.77;;;7.32;;
16837;SDS011;19510;54.486;9.046;2023-02-22T16:04:22;13.10;;;6.93;;
16837;SDS011;19510;54.486;9.046;2023-02-22T16:07:15;16.42;;;7.75;;
16837;SDS011;19510;54.486;9.046;2023-02-22T16:09:48;12.82;;;6.88;;
16837;SDS011;19510;54.486;9.046;2023-02-22T16:14:51;14.90;;;7.40;;
16837;SDS011;19510;54.486;9.046;2023-02-22T16:19:58;13.82;;;6.85;;
16837;SDS011;19510;54.486;9.046;2023-02-22T16:22:32;13.82;;;7.38;;
16837;SDS011;19510;54.486;9.046;2023-02-22T16:27:43;15.70;;;7.30;;
16837;SDS011;19510;54.486;9.046;2023-02-22T16:30:23;14.32;;;7.05;;
16837;SDS011;19510;54.486;9.046;2023-02-22T16:32:56;16.08;;;8.30;;
16837;SDS011;19510;54.486;9.046;2023-02-22T16:35:26;17.63;;;7.10;;
16837;SDS011;19510;54.486;9.046;2023-02-22T16:38:02;13.70;;;6.72;;
16837;SDS011;19510;54.486;9.046;2023-02-22T16:40:30;13.80;;;6.32;;
16837;SDS011;19510;54.486;9.046;2023-02-22T16:42:59;14.07;;;7.57;;
16837;SDS011;19510;54.486;9.046;2023-02-22T16:45:30;17.02;;;8.40;;
16837;SDS011;19510;54.486;9.046;2023-02-22T16:47:56;18.00;;;7.93;;
16837;SDS011;19510;54.486;9.046;2023-02-22T16:50:23;13.70;;;6.78;;
16837;SDS011;19510;54.486;9.046;2023-02-22T16:52:49;15.05;;;7.95;;
16837;SDS011;19510;54.486;9.046;2023-02-22T16:55:17;14.63;;;7.45;;
16837;SDS011;19510;54.486;9.046;2023-02-22T16:57:44;14.32;;;6.85;;
16837;SDS011;19510;54.486;9.046;2023-02-22T17:00:14;13.60;;;6.80;;
16837;SDS011;19510;54.486;9.046;2023-02-22T17:02:58;12.68;;;7.25;;
16837;SDS011;19510;54.486;9.046;2023-02-22T17:05:28;15.98;;;7.05;;
16837;SDS011;19510;54.486;9.046;2023-02-22T17:08:00;18.15;;;7.95;;
16837;SDS011;19510;54.486;9.046;2023-02-22T17:10:26;16.45;;;7.75;;
16837;SDS011;19510;54.486;9.046;2023-02-22T17:12:54;14.07;;;7.22;;
16837;SDS011;19510;54.486;9.046;2023-02-22T17:17:48;19.58;;;8.00;;
16837;SDS011;19510;54.486;9.046;2023-02-22T17:20:17;14.23;;;7.55;;
16837;SDS011;19510;54.486;9.046;2023-02-22T17:22:54;15.57;;;7.30;;
16837;SDS011;19510;54.486;9.046;2023-02-22T17:25:22;16.52;;;7.95;;
16837;SDS011;19510;54.486;9.046;2023-02-22T17:27:50;16.60;;;7.53;;
16837;SDS011;19510;54.486;9.046;2023-02-22T17:37:02;14.77;;;6.88;;
16837;SDS011;19510;54.486;9.046;2023-02-22T17:39:29;14.07;;;7.03;;
16837;SDS011;19510;54.486;9.046;2023-02-22T17:41:56;13.20;;;6.93;;
16837;SDS011;19510;54.486;9.046;2023-02-22T17:44:25;16.90;;;7.53;;
16837;SDS011;19510;54.486;9.046;2023-02-22T17:46:51;17.38;;;8.43;;
16837;SDS011;19510;54.486;9.046;2023-02-22T17:49:21;15.05;;;7.60;;
16837;SDS011;19510;54.486;9.046;2023-02-22T17:51:47;14.38;;;8.00;;
16837;SDS011;19510;54.486;9.046;2023-02-22T17:54:14;15.68;;;7.88;;